Time;durP1;ratioP1;P1;durP2;ratioP2;P2;SDS_P1;SDS_P2;PMS_P1;PMS_P2;Temp;Humidity;BMP_temperature;BMP_pressure;BME280_temperature;BME280_humidity;BME280_pressure;Samples;Min_cycle;Max_cycle;Signal;HPM_P1;HPM_P2
2022/10/03 00:02:48;;;;;;;11.13;3.00;;;9.50;99.90;;;;;;6275543;22;20464;-84
2022/10/03 00:05:51;;;;;;;16.48;3.00;;;9.50;99.90;;;;;;6247675;22;20027;-84
2022/10/03 00:08:55;;;;;;;14.88;2.80;;;9.50;99.90;;;;;;6248451;22;20030;-85
2022/10/03 00:12:07;;;;;;;17.98;3.22;;;9.50;99.90;;;;;;6248929;22;20444;-84
2022/10/03 00:15:02;;;;;;;12.80;2.90;;;9.50;99.90;;;;;;6098612;23;20018;-84
2022/10/03 00:17:48;;;;;;;18.55;3.38;;;9.50;99.90;;;;;;6248199;22;20463;-84
2022/10/03 00:20:32;;;;;;;16.27;3.00;;;9.40;99.90;;;;;;6247377;22;20462;-85
2022/10/03 00:23:03;;;;;;;17.80;3.22;;;9.40;99.90;;;;;;6248401;22;20016;-85
2022/10/03 00:26:26;;;;;;;15.65;3.10;;;9.40;99.90;;;;;;6275532;22;20012;-84
2022/10/03 00:29:13;;;;;;;16.83;3.15;;;9.40;99.90;;;;;;6248222;22;20012;-85
2022/10/03 00:32:03;;;;;;;15.60;2.97;;;9.30;99.90;;;;;;6275515;22;20019;-85
2022/10/03 00:34:31;;;;;;;20.02;3.20;;;9.30;99.90;;;;;;6247776;22;20023;-85
2022/10/03 00:37:23;;;;;;;12.80;3.05;;;10.60;99.90;;;;;;6275745;22;20022;-85
2022/10/03 00:40:34;;;;;;;16.92;3.60;;;9.30;99.90;;;;;;6204558;22;20016;-84
2022/10/03 00:43:20;;;;;;;14.43;2.67;;;9.30;99.90;;;;;;6248165;22;20111;-84
2022/10/03 00:46:16;;;;;;;19.45;3.33;;;9.30;99.90;;;;;;6275660;22;20070;-84
2022/10/03 00:48:48;;;;;;;15.55;3.40;;;9.30;99.90;;;;;;6274710;22;20016;-85
2022/10/03 00:51:22;;;;;;;19.55;3.75;;;9.30;99.90;;;;;;6247954;22;20016;-84
2022/10/03 00:54:20;;;;;;;18.00;3.15;;;9.30;99.90;;;;;;6248490;22;20020;-85
2022/10/03 00:56:45;;;;;;;14.48;2.83;;;9.30;99.90;;;;;;6275518;22;20328;-85
2022/10/03 00:59:39;;;;;;;15.18;2.92;;;9.20;99.90;;;;;;6247924;22;20019;-84
2022/10/03 01:02:49;;;;;;;17.83;3.43;;;9.20;99.90;;;;;;6224029;23;20012;-85
2022/10/03 01:09:07;;;;;;;19.67;3.35;;;8.60;99.90;;;;;;6121670;23;20025;-85
2022/10/03 01:12:08;;;;;;;17.48;3.47;;;9.20;99.90;;;;;;6122362;23;20018;-84
2022/10/03 01:15:07;;;;;;;19.83;4.00;;;9.20;99.90;;;;;;6122421;23;20477;-84
2022/10/03 01:17:54;;;;;;;19.17;3.58;;;9.20;99.90;;;;;;6121981;23;20065;-85
2022/10/03 01:20:38;;;;;;;17.33;3.42;;;9.10;99.90;;;;;;6097746;23;20018;-85
2022/10/03 01:23:28;;;;;;;17.98;2.90;;;9.70;99.90;;;;;;6184550;23;20016;-85
2022/10/03 01:26:18;;;;;;;14.52;3.33;;;9.20;99.90;;;;;;6218062;23;20017;-84
2022/10/03 01:31:59;;;;;;;14.90;2.78;;;9.10;99.90;;;;;;6244532;23;20024;-84
2022/10/03 01:34:41;;;;;;;16.05;3.00;;;9.20;99.90;;;;;;6217864;23;20328;-84
2022/10/03 01:37:32;;;;;;;17.73;3.45;;;9.20;99.90;;;;;;6216633;23;20008;-84
2022/10/03 01:40:16;;;;;;;16.98;3.72;;;9.20;99.90;;;;;;6245539;23;20044;-85
2022/10/03 01:43:01;;;;;;;17.63;3.40;;;9.20;99.90;;;;;;6218180;23;20016;-84
2022/10/03 01:45:46;;;;;;;16.63;3.20;;;9.20;99.90;;;;;;6216702;23;20028;-84
2022/10/03 01:48:46;;;;;;;18.70;3.17;;;9.10;99.90;;;;;;6217227;23;20012;-84
2022/10/03 01:51:23;;;;;;;14.02;2.67;;;9.10;99.90;;;;;;6216549;23;20024;-85
2022/10/03 01:54:08;;;;;;;16.15;3.30;;;9.10;99.90;;;;;;6245038;23;20017;-85
2022/10/03 01:56:51;;;;;;;;;;;9.10;99.90;;;;;;6247084;23;20383;-85
2022/10/03 01:59:37;;;;;;;15.20;2.90;;;9.10;99.90;;;;;;6218673;23;19950;-85
2022/10/03 02:02:20;;;;;;;15.85;3.35;;;9.00;99.90;;;;;;6246730;23;20016;-85
2022/10/03 02:05:06;;;;;;;17.17;3.23;;;9.00;99.90;;;;;;6218015;23;20020;-85
2022/10/03 02:08:02;;;;;;;19.65;3.50;;;9.00;99.90;;;;;;6245653;23;20274;-85
2022/10/03 02:10:44;;;;;;;19.27;3.15;;;8.90;99.90;;;;;;6246544;23;20087;-85
2022/10/03 02:13:46;;;;;;;16.65;3.00;;;9.00;99.90;;;;;;6217824;23;20027;-84
2022/10/03 02:16:36;;;;;;;16.80;3.17;;;8.90;99.90;;;;;;6218362;23;20455;-85
2022/10/03 02:19:25;;;;;;;17.33;3.05;;;8.80;99.90;;;;;;6218566;23;20016;-85
2022/10/03 02:21:57;;;;;;;22.05;3.03;;;8.80;99.90;;;;;;6219389;23;20047;-85
2022/10/03 02:24:26;;;;;;;12.50;2.75;;;9.90;99.90;;;;;;6245808;23;20026;-85
2022/10/03 02:27:06;;;;;;;18.40;3.42;;;9.30;99.90;;;;;;6245628;23;20018;-85
2022/10/03 02:30:05;;;;;;;20.00;3.28;;;8.80;99.90;;;;;;6219165;23;20023;-85
2022/10/03 02:32:50;;;;;;;18.60;3.63;;;8.80;99.90;;;;;;6218910;23;20086;-85
2022/10/03 02:35:53;;;;;;;17.92;3.03;;;8.80;99.90;;;;;;6246101;23;20027;-84
2022/10/03 02:38:44;;;;;;;16.23;3.17;;;8.80;99.90;;;;;;6218514;23;20016;-84
2022/10/03 02:41:24;;;;;;;15.65;3.28;;;8.80;99.90;;;;;;6217938;23;20020;-85
2022/10/03 02:44:01;;;;;;;16.98;3.58;;;8.70;99.90;;;;;;6218730;23;20020;-85
2022/10/03 02:46:57;;;;;;;14.05;3.00;;;8.70;99.90;;;;;;6219107;23;20475;-85
2022/10/03 02:50:01;;;;;;;16.08;4.57;;;8.70;99.90;;;;;;6190206;23;20027;-85
2022/10/03 02:52:32;;;;;;;20.35;7.45;;;8.70;99.90;;;;;;6123447;23;20505;-85
2022/10/03 02:55:42;;;;;;;28.00;13.00;;;8.60;99.90;;;;;;6200304;23;20020;-85
2022/10/03 02:58:22;;;;;;;22.33;4.28;;;8.70;99.90;;;;;;6245309;23;20138;-84
2022/10/03 03:00:57;;;;;;;19.63;5.20;;;8.60;99.90;;;;;;6218707;23;20016;-85
2022/10/03 03:04:00;;;;;;;18.83;4.15;;;8.60;99.90;;;;;;6218711;23;20032;-85
2022/10/03 03:06:57;;;;;;;16.02;3.60;;;8.60;99.90;;;;;;6245663;23;20340;-85
2022/10/03 03:10:12;;;;;;;17.42;4.13;;;8.60;99.90;;;;;;6217855;23;20051;-85
2022/10/03 03:13:16;;;;;;;18.73;7.43;;;8.60;99.90;;;;;;6218728;23;20020;-85
2022/10/03 03:16:23;;;;;;;21.10;5.32;;;8.50;99.90;;;;;;6218065;23;20020;-85
2022/10/03 03:18:55;;;;;;;18.73;4.72;;;8.50;99.90;;;;;;6218893;23;20073;-85
2022/10/03 03:24:47;;;;;;;17.20;3.72;;;8.40;99.90;;;;;;6262535;22;20478;-85
2022/10/03 03:27:21;;;;;;;20.80;4.10;;;8.50;99.90;;;;;;6245487;23;20020;-85
2022/10/03 03:30:05;;;;;;;17.23;4.40;;;8.50;99.90;;;;;;6218182;23;20016;-85
2022/10/03 03:32:43;;;;;;;;;;;8.50;99.90;;;;;;6219407;23;20020;-85
2022/10/03 03:35:27;;;;;;;21.50;5.18;;;8.50;99.90;;;;;;6218417;23;20000;-85
2022/10/03 03:41:05;;;;;;;16.88;4.68;;;8.50;99.90;;;;;;6198802;22;20459;-85
2022/10/03 03:44:23;;;;;;;16.60;5.05;;;8.50;99.90;;;;;;6229758;22;20463;-85
2022/10/03 03:47:09;;;;;;;27.13;11.85;;;8.50;99.90;;;;;;6245235;23;20024;-85
2022/10/03 03:49:50;;;;;;;21.17;8.90;;;8.50;99.90;;;;;;6218552;23;20012;-85
2022/10/03 03:52:51;;;;;;;18.58;5.38;;;8.40;99.90;;;;;;6217570;23;20448;-85
2022/10/03 03:55:47;;;;;;;16.65;4.00;;;8.50;99.90;;;;;;6217986;23;20028;-85
2022/10/03 03:58:36;;;;;;;17.85;4.07;;;8.50;99.90;;;;;;6210760;23;20467;-85
2022/10/03 04:01:25;;;;;;;15.82;3.22;;;8.60;99.90;;;;;;6168445;23;20394;-85
2022/10/03 04:04:11;;;;;;;19.88;3.67;;;8.50;99.90;;;;;;6217930;23;20019;-85
2022/10/03 04:06:55;;;;;;;21.35;4.90;;;8.60;99.90;;;;;;6244772;23;20050;-85
2022/10/03 04:09:52;;;;;;;49.10;23.15;;;8.60;99.90;;;;;;6218054;23;20023;-85
2022/10/03 04:12:43;;;;;;;40.55;17.58;;;8.60;99.90;;;;;;6244314;23;20024;-85
2022/10/03 04:15:35;;;;;;;70.22;36.28;;;8.50;99.90;;;;;;6217680;23;20340;-85
2022/10/03 04:21:18;;;;;;;28.45;12.30;;;8.60;99.90;;;;;;6218308;23;20444;-85
2022/10/03 04:23:58;;;;;;;37.97;18.92;;;8.60;99.90;;;;;;6245454;23;20052;-85
2022/10/03 04:27:01;;;;;;;28.08;11.43;;;8.60;99.90;;;;;;6217384;23;20027;-85
2022/10/03 04:30:08;;;;;;;40.55;15.45;;;8.60;99.90;;;;;;6217591;23;20047;-85
2022/10/03 04:33:07;;;;;;;17.75;3.60;;;8.70;99.90;;;;;;6217437;23;20452;-85
2022/10/03 04:35:32;;;;;;;16.55;4.10;;;8.60;99.90;;;;;;6218033;23;20016;-85
2022/10/03 04:38:20;;;;;;;21.33;7.07;;;8.60;99.90;;;;;;6218224;23;20043;-85
2022/10/03 04:41:07;;;;;;;22.98;6.82;;;8.20;99.90;;;;;;6217436;23;20464;-85
2022/10/03 04:47:48;;;;;;;37.10;18.50;;;8.50;99.90;;;;;;6242979;23;20043;-85
2022/10/03 04:50:29;;;;;;;31.65;17.65;;;8.60;99.90;;;;;;6244787;23;20099;-85
2022/10/03 04:53:18;;;;;;;45.78;24.60;;;8.60;99.90;;;;;;6243520;23;20463;-85
2022/10/03 04:55:46;;;;;;;37.05;17.13;;;8.60;99.90;;;;;;6242913;23;20023;-85
2022/10/03 04:58:37;;;;;;;31.23;13.32;;;8.60;99.90;;;;;;6242702;23;20013;-85
2022/10/03 05:01:16;;;;;;;25.30;8.60;;;8.50;99.90;;;;;;6243157;23;20017;-85
2022/10/03 05:03:59;;;;;;;43.90;22.15;;;8.50;99.90;;;;;;6243454;23;20066;-85
2022/10/03 05:06:55;;;;;;;26.65;12.43;;;8.50;99.90;;;;;;6243249;23;20009;-85
2022/10/03 05:10:00;;;;;;;20.02;5.88;;;8.50;99.90;;;;;;6216216;22;20345;-85
2022/10/03 05:13:11;;;;;;;16.60;4.65;;;8.50;99.90;;;;;;6212045;23;20318;-85
2022/10/03 05:16:05;;;;;;;15.73;3.97;;;8.60;99.90;;;;;;6068255;23;20573;-85
2022/10/03 05:18:44;;;;;;;33.27;17.33;;;8.60;99.90;;;;;;6212686;23;20047;-85
2022/10/03 05:21:09;;;;;;;45.55;19.30;;;8.60;99.90;;;;;;6214656;23;20248;-85
2022/10/03 05:24:02;;;;;;;32.08;12.15;;;8.50;99.90;;;;;;6211697;23;20400;-85
2022/10/03 05:26:59;;;;;;;24.00;8.40;;;8.50;99.90;;;;;;6212509;23;20023;-85
2022/10/03 05:30:02;;;;;;;28.60;10.93;;;8.50;99.90;;;;;;6214347;23;20020;-86
2022/10/03 05:32:55;;;;;;;19.73;7.35;;;8.50;99.90;;;;;;6158437;23;20017;-85
2022/10/03 05:36:08;;;;;;;25.42;7.70;;;8.50;99.90;;;;;;6213792;22;20291;-85
2022/10/03 05:39:11;;;;;;;16.42;6.13;;;8.50;99.90;;;;;;6215089;23;20027;-85
2022/10/03 05:41:38;;;;;;;21.52;11.57;;;8.50;99.90;;;;;;6246322;23;20440;-85
2022/10/03 05:44:16;;;;;;;18.13;6.72;;;8.50;99.90;;;;;;6265345;22;20363;-85
2022/10/03 05:47:48;;;;;;;17.02;3.50;;;8.50;99.90;;;;;;6277595;22;20018;-85
2022/10/03 05:50:41;;;;;;;16.15;4.20;;;8.40;99.90;;;;;;6098249;23;20122;-85
2022/10/03 05:53:25;;;;;;;17.77;5.32;;;8.30;99.90;;;;;;6229698;22;20100;-85
2022/10/03 06:00:05;;;;;;;12.43;3.78;;;8.20;99.90;;;;;;6193859;22;20016;-86
2022/10/03 06:08:19;;;;;;;14.32;3.60;;;8.00;99.90;;;;;;6270090;22;20023;-84
2022/10/03 06:11:06;;;;;;;17.55;3.80;;;8.20;99.90;;;;;;6249789;22;20016;-85
2022/10/03 06:13:32;;;;;;;13.70;4.30;;;8.10;99.90;;;;;;6248937;22;20321;-87
2022/10/03 06:16:48;;;;;;;11.82;3.38;;;8.10;99.90;;;;;;6277729;22;20053;-86
2022/10/03 06:19:41;;;;;;;14.35;3.60;;;8.20;99.90;;;;;;6098454;23;20017;-86
2022/10/03 06:22:29;;;;;;;12.48;3.80;;;8.30;99.90;;;;;;6099336;23;20073;-86
2022/10/03 06:25:20;;;;;;;17.53;4.53;;;8.40;99.90;;;;;;6231918;22;20024;-86
2022/10/03 06:28:14;;;;;;;14.02;3.83;;;9.00;99.90;;;;;;6250174;22;20510;-86
2022/10/03 06:34:21;;;;;;;13.82;4.10;;;8.60;99.90;;;;;;6275714;22;20094;-87
2022/10/03 06:37:29;;;;;;;16.90;4.20;;;8.70;99.90;;;;;;6276507;22;20346;-87
2022/10/03 06:40:26;;;;;;;16.08;4.47;;;8.80;99.90;;;;;;6275912;22;20007;-86
2022/10/03 06:42:55;;;;;;;20.30;5.67;;;8.80;99.90;;;;;;6276703;22;20012;-87
2022/10/03 06:45:39;;;;;;;22.35;8.70;;;8.90;99.90;;;;;;6276783;22;20024;-86
2022/10/03 06:48:49;;;;;;;15.27;4.60;;;8.90;99.90;;;;;;6274657;22;20034;-87
2022/10/03 06:51:39;;;;;;;14.90;4.35;;;9.80;99.90;;;;;;6123139;23;20080;-87
2022/10/03 06:54:10;;;;;;;16.58;4.88;;;9.10;99.90;;;;;;6242082;22;20012;-87
2022/10/03 06:57:02;;;;;;;16.83;4.57;;;9.10;99.90;;;;;;6249485;22;20026;-87
2022/10/03 06:59:41;;;;;;;13.68;3.85;;;9.20;99.90;;;;;;6249139;22;20071;-86
2022/10/03 07:02:36;;;;;;;11.95;3.90;;;9.20;99.90;;;;;;6275725;22;20094;-86
2022/10/03 07:05:32;;;;;;;17.23;3.60;;;9.30;99.90;;;;;;6224943;22;20015;-86
2022/10/03 07:08:16;;;;;;;15.47;3.87;;;9.30;99.90;;;;;;6275703;22;20065;-85
2022/10/03 07:11:04;;;;;;;17.55;3.72;;;9.30;99.90;;;;;;6249380;22;20024;-86
2022/10/03 07:14:07;;;;;;;14.27;3.30;;;9.40;99.90;;;;;;6249267;22;20012;-86
2022/10/03 07:16:38;;;;;;;13.87;3.90;;;9.50;99.90;;;;;;6276787;22;20015;-86
2022/10/03 07:19:26;;;;;;;11.80;3.10;;;9.60;99.90;;;;;;6248734;22;20012;-86
2022/10/03 07:22:23;;;;;;;14.10;3.17;;;9.70;99.90;;;;;;6248214;22;20019;-87
2022/10/03 07:25:10;;;;;;;11.68;3.15;;;9.80;99.90;;;;;;6248646;22;20023;-86
2022/10/03 07:27:47;;;;;;;12.55;3.17;;;9.90;99.90;;;;;;6249385;22;20016;-86
2022/10/03 07:30:43;;;;;;;9.88;3.05;;;10.00;99.90;;;;;;6247802;22;20435;-87
2022/10/03 07:33:28;;;;;;;11.07;2.75;;;10.10;99.90;;;;;;6241192;22;20095;-86
2022/10/03 07:39:32;;;;;;;14.98;3.10;;;10.30;99.90;;;;;;6248740;22;20020;-86
2022/10/03 07:42:10;;;;;;;;;;;10.40;99.90;;;;;;6249558;22;20081;-86
2022/10/03 07:45:03;;;;;;;10.85;3.10;;;10.50;99.90;;;;;;6275538;22;19915;-85
2022/10/03 07:47:41;;;;;;;12.52;3.03;;;10.90;99.90;;;;;;6275708;22;20011;-87
2022/10/03 07:52:56;;;;;;;14.23;2.80;;;10.80;99.90;;;;;;6252404;22;20352;-87
2022/10/03 07:56:06;;;;;;;15.00;3.17;;;10.80;99.90;;;;;;6275900;22;20015;-87
2022/10/03 07:58:46;;;;;;;13.73;2.90;;;10.90;99.90;;;;;;6248037;22;20016;-87
2022/10/03 08:01:30;;;;;;;13.65;3.28;;;12.40;99.90;;;;;;6248344;22;20038;-87
2022/10/03 08:04:17;;;;;;;11.45;2.95;;;11.90;99.90;;;;;;6273842;22;20113;-87
2022/10/03 08:07:14;;;;;;;14.25;3.15;;;11.20;99.90;;;;;;6276228;22;20047;-88
2022/10/03 08:09:49;;;;;;;11.88;2.30;;;11.30;99.90;;;;;;6275843;22;20027;-87
2022/10/03 08:12:34;;;;;;;14.30;3.10;;;12.30;99.90;;;;;;6245745;22;20019;-93
2022/10/03 08:15:09;;;;;;;12.25;2.50;;;11.50;99.90;;;;;;6248669;22;20012;-86
2022/10/03 08:18:15;;;;;;;10.82;2.80;;;11.60;99.90;;;;;;6247752;22;20024;-86
2022/10/03 08:20:49;;;;;;;12.88;2.40;;;11.70;99.90;;;;;;6249640;22;20052;-88
2022/10/03 08:23:24;;;;;;;11.10;2.40;;;11.80;99.90;;;;;;6248421;22;20347;-86
2022/10/03 08:26:10;;;;;;;11.95;2.70;;;11.90;99.90;;;;;;6275641;22;20019;-87
2022/10/03 08:29:03;;;;;;;10.95;2.75;;;13.00;99.90;;;;;;6248581;22;20340;-87
2022/10/03 08:31:47;;;;;;;13.48;2.80;;;12.10;99.90;;;;;;6247247;22;20016;-88
2022/10/03 08:34:41;;;;;;;12.30;2.42;;;12.20;99.90;;;;;;6275216;22;20463;-88
2022/10/03 08:37:25;;;;;;;12.48;2.47;;;12.30;99.90;;;;;;6249228;22;20440;-89
2022/10/03 08:40:22;;;;;;;11.73;2.22;;;12.40;99.90;;;;;;6247789;22;20087;-88
2022/10/03 08:43:32;;;;;;;10.25;2.20;;;12.50;99.90;;;;;;6248781;22;20066;-87
2022/10/03 08:46:22;;;;;;;11.82;2.20;;;12.60;99.90;;;;;;6235933;22;20020;-86
2022/10/03 08:49:18;;;;;;;13.45;2.75;;;12.70;99.90;;;;;;6248227;22;20081;-85
2022/10/03 08:52:16;;;;;;;13.43;2.53;;;12.80;99.90;;;;;;6248758;22;20052;-87
2022/10/03 08:55:19;;;;;;;11.35;2.53;;;12.50;99.90;;;;;;6190276;22;20103;-87
2022/10/03 08:58:26;;;;;;;11.02;2.20;;;13.00;99.90;;;;;;6248703;22;20015;-86
2022/10/03 09:02:02;;;;;;;10.88;1.90;;;13.20;99.90;;;;;;6248191;22;20022;-87
2022/10/03 09:04:58;;;;;;;11.18;2.00;;;13.30;99.90;;;;;;6037031;23;20027;-85
2022/10/03 09:07:33;;;;;;;11.95;2.50;;;13.40;99.90;;;;;;6246754;22;20016;-85
2022/10/03 09:10:19;;;;;;;11.35;2.03;;;13.60;99.90;;;;;;6275150;22;20008;-84
2022/10/03 09:13:05;;;;;;;11.35;2.22;;;13.70;99.90;;;;;;6248326;22;20031;-83
2022/10/03 09:15:49;;;;;;;11.60;2.13;;;13.80;99.90;;;;;;6275408;22;20039;-85
2022/10/03 09:26:47;;;;;;;11.88;2.08;;;14.10;99.90;;;;;;6247516;22;20031;-85
2022/10/03 09:30:03;;;;;;;8.35;1.60;;;14.20;99.90;;;;;;6274321;22;20020;-85
2022/10/03 09:33:02;;;;;;;7.53;1.85;;;14.30;99.90;;;;;;6247945;22;20024;-85
2022/10/03 09:35:46;;;;;;;8.80;1.38;;;14.40;99.90;;;;;;6247243;22;20062;-85
2022/10/03 09:38:30;;;;;;;10.90;1.90;;;15.10;99.90;;;;;;6272361;22;20019;-82
2022/10/03 09:41:11;;;;;;;;;;;14.60;99.90;;;;;;6247905;22;20321;-84
2022/10/03 09:43:47;;;;;;;7.97;1.70;;;14.70;99.90;;;;;;6246924;22;20209;-83
2022/10/03 09:46:43;;;;;;;11.80;1.70;;;14.80;99.90;;;;;;6247433;22;20012;-84
2022/10/03 09:49:51;;;;;;;11.82;1.60;;;14.90;99.90;;;;;;6245392;22;20118;-83
2022/10/03 09:52:52;;;;;;;9.73;1.63;;;15.00;99.90;;;;;;6247282;22;20015;-83
2022/10/03 09:55:29;;;;;;;7.53;1.50;;;15.20;99.90;;;;;;6274097;22;20117;-83
2022/10/03 09:58:09;;;;;;;11.00;1.80;;;15.30;99.90;;;;;;6247611;22;20051;-84
2022/10/03 10:01:15;;;;;;;8.50;1.75;;;15.40;99.90;;;;;;6275683;22;20016;-84
2022/10/03 10:04:13;;;;;;;13.57;1.92;;;15.40;99.90;;;;;;6246922;22;20040;-84
2022/10/03 10:07:10;;;;;;;8.90;1.83;;;15.60;99.90;;;;;;6247843;22;20106;-86
2022/10/03 10:10:11;;;;;;;8.20;1.63;;;15.70;99.90;;;;;;6245868;22;20015;-85
2022/10/03 10:12:55;;;;;;;9.45;1.77;;;15.70;99.90;;;;;;6248035;22;20335;-84
2022/10/03 10:15:39;;;;;;;;;;;15.80;99.90;;;;;;6248199;22;20090;-86
2022/10/03 10:18:14;;;;;;;8.90;1.60;;;15.80;99.90;;;;;;6248792;22;19911;-86
2022/10/03 10:20:54;;;;;;;8.90;1.63;;;15.80;99.90;;;;;;6250289;22;20452;-86
2022/10/03 10:23:36;;;;;;;13.32;2.00;;;16.00;99.90;;;;;;6277362;22;20031;-86
2022/10/03 10:26:38;;;;;;;9.50;1.75;;;16.10;99.90;;;;;;6249262;22;20090;-84
2022/10/03 10:29:21;;;;;;;7.53;1.48;;;16.60;99.90;;;;;;6224325;22;20055;-85
2022/10/03 10:32:35;;;;;;;9.13;1.70;;;16.40;99.90;;;;;;6249364;22;20016;-84
2022/10/03 10:35:45;;;;;;;8.38;1.50;;;16.50;99.90;;;;;;6161414;22;20087;-83
2022/10/03 10:38:36;;;;;;;7.90;1.58;;;16.70;99.90;;;;;;6275789;22;20019;-83
2022/10/03 10:41:32;;;;;;;11.40;1.80;;;16.80;99.90;;;;;;6250004;22;20027;-84
2022/10/03 10:44:20;;;;;;;8.88;1.92;;;16.60;99.90;;;;;;6250082;22;20389;-85
2022/10/03 10:47:04;;;;;;;7.10;1.50;;;16.40;99.90;;;;;;6276611;22;20026;-84
2022/10/03 10:49:56;;;;;;;6.50;1.42;;;16.40;99.90;;;;;;6249457;22;20016;-82
2022/10/03 10:53:01;;;;;;;9.25;1.90;;;16.40;99.90;;;;;;6231394;22;20440;-83
2022/10/03 10:58:30;;;;;;;9.32;1.60;;;16.50;99.90;;;;;;6215884;23;20028;-83
2022/10/03 11:01:35;;;;;;;8.90;1.70;;;16.30;99.90;;;;;;6215257;23;20316;-83
2022/10/03 11:04:59;;;;;;;9.55;1.88;;;16.60;99.90;;;;;;6189066;23;20028;-82
2022/10/03 11:07:54;;;;;;;8.02;1.75;;;16.70;99.90;;;;;;6180013;23;20012;-81
2022/10/03 11:10:38;;;;;;;7.60;1.60;;;16.80;99.90;;;;;;6215893;23;20020;-81
2022/10/03 11:13:19;;;;;;;;;;;16.90;99.90;;;;;;6189876;23;20013;-81
2022/10/03 11:16:15;;;;;;;8.52;1.70;;;16.90;99.90;;;;;;6216367;23;19916;-81
2022/10/03 11:19:05;;;;;;;10.63;2.63;;;16.90;99.90;;;;;;6189111;23;20027;-81
2022/10/03 11:21:42;;;;;;;8.80;1.60;;;16.90;99.90;;;;;;6214988;23;20020;-81
2022/10/03 11:24:52;;;;;;;7.80;1.60;;;17.00;99.90;;;;;;6215806;23;20135;-80
2022/10/03 11:27:55;;;;;;;7.63;2.00;;;17.20;99.90;;;;;;6139196;23;20445;-81
2022/10/03 11:30:39;;;;;;;8.27;1.70;;;17.20;99.90;;;;;;6215443;23;20017;-81
2022/10/03 11:33:25;;;;;;;9.43;1.58;;;17.30;99.90;;;;;;6189264;23;20013;-83
2022/10/03 11:36:27;;;;;;;10.63;1.77;;;17.50;99.90;;;;;;6214983;23;20453;-83
2022/10/03 11:38:59;;;;;;;8.20;1.38;;;17.60;99.90;;;;;;6189512;23;20395;-82
2022/10/03 11:41:59;;;;;;;6.95;1.40;;;17.80;99.90;;;;;;6187873;23;20012;-82
2022/10/03 11:45:00;;;;;;;6.75;1.60;;;17.40;99.90;;;;;;6143155;23;20017;-83
2022/10/03 11:47:40;;;;;;;14.65;1.92;;;17.60;99.90;;;;;;6215243;23;20016;-82
2022/10/03 11:50:21;;;;;;;9.80;1.58;;;17.70;99.90;;;;;;6214703;23;20016;-82
2022/10/03 11:52:59;;;;;;;7.70;1.92;;;17.90;99.90;;;;;;6216076;23;20019;-82
2022/10/03 11:55:47;;;;;;;6.25;1.50;;;17.90;99.90;;;;;;6188373;23;20382;-82
2022/10/03 11:58:23;;;;;;;8.82;1.77;;;17.80;99.90;;;;;;6188553;23;20100;-82
2022/10/03 12:01:06;;;;;;;7.43;1.65;;;18.60;99.90;;;;;;6188925;23;20062;-82
2022/10/03 12:03:42;;;;;;;7.13;1.58;;;17.90;99.90;;;;;;6187877;23;20021;-82
2022/10/03 12:09:20;;;;;;;10.48;2.40;;;18.50;99.90;;;;;;6188385;23;20024;-83
2022/10/03 12:12:04;;;;;;;8.98;2.10;;;17.50;99.90;;;;;;6188157;23;20016;-83
2022/10/03 12:14:34;;;;;;;;;;;17.70;99.90;;;;;;6188937;23;20051;-83
2022/10/03 12:17:16;;;;;;;6.32;1.40;;;17.70;99.90;;;;;;6188184;23;19916;-83
2022/10/03 12:20:02;;;;;;;9.60;1.77;;;18.00;99.90;;;;;;6188633;23;20027;-84
2022/10/03 12:22:47;;;;;;;8.40;1.98;;;18.20;99.90;;;;;;6188226;23;20043;-83
2022/10/03 12:25:35;;;;;;;5.05;1.35;;;19.10;99.90;;;;;;6214078;23;20458;-83
2022/10/03 12:28:17;;;;;;;6.13;1.70;;;18.70;99.90;;;;;;6215414;23;20348;-83
2022/10/03 12:30:55;;;;;;;8.77;2.15;;;19.00;99.90;;;;;;6187832;23;20067;-84
2022/10/03 12:38:50;;;;;;;7.78;1.60;;;18.90;99.90;;;;;;6252163;22;20077;-82
2022/10/03 12:41:39;;;;;;;;;;;18.90;99.90;;;;;;6249334;22;20095;-83
2022/10/03 12:44:13;;;;;;;8.27;1.88;;;18.40;99.90;;;;;;6179912;22;19919;-83
2022/10/03 12:47:16;;;;;;;7.10;1.50;;;18.60;99.90;;;;;;6248075;22;20470;-83
2022/10/03 12:50:06;;;;;;;6.13;1.50;;;18.40;99.90;;;;;;6276448;22;20022;-83
2022/10/03 12:52:53;;;;;;;9.27;1.65;;;18.20;99.90;;;;;;6249161;22;20012;-83
2022/10/03 12:55:39;;;;;;;6.25;1.80;;;18.20;99.90;;;;;;6248385;22;20012;-83
2022/10/03 12:58:28;;;;;;;8.93;1.80;;;19.10;99.90;;;;;;6275639;22;20020;-84
2022/10/03 13:01:08;;;;;;;8.18;1.67;;;18.70;99.90;;;;;;6248050;22;20016;-82
2022/10/03 13:03:55;;;;;;;8.48;1.52;;;18.80;99.90;;;;;;6248948;22;20016;-84
2022/10/03 13:06:53;;;;;;;8.13;1.67;;;18.70;99.90;;;;;;6274752;22;20340;-82
2022/10/03 13:09:45;;;;;;;10.65;2.00;;;18.40;99.90;;;;;;6275813;22;20054;-83
2022/10/03 13:12:39;;;;;;;5.57;1.45;;;18.30;99.90;;;;;;6248304;22;20019;-83
2022/10/03 13:15:37;;;;;;;8.13;1.60;;;18.00;99.90;;;;;;6248325;22;20050;-84
2022/10/03 13:18:17;;;;;;;7.95;1.80;;;17.90;99.90;;;;;;6276402;22;20030;-83
2022/10/03 13:21:08;;;;;;;8.00;1.80;;;17.80;99.90;;;;;;6248023;22;20069;-84
2022/10/03 13:23:57;;;;;;;7.88;1.63;;;17.70;99.90;;;;;;6247955;22;20523;-83
2022/10/03 13:26:38;;;;;;;9.20;1.70;;;17.70;99.90;;;;;;6248448;22;20012;-84
2022/10/03 13:29:29;;;;;;;8.27;2.10;;;17.60;99.90;;;;;;6275148;22;20099;-84
2022/10/03 13:32:06;;;;;;;9.50;1.70;;;17.70;99.90;;;;;;6249083;22;20047;-83
2022/10/03 13:34:45;;;;;;;7.53;2.38;;;17.90;99.90;;;;;;6275169;22;20083;-84
2022/10/03 13:37:49;;;;;;;8.32;1.73;;;18.60;99.90;;;;;;6275773;22;20066;-83
2022/10/03 13:40:18;;;;;;;7.47;1.70;;;17.90;99.90;;;;;;6216368;22;20448;-84
2022/10/03 13:42:52;;;;;;;9.20;1.60;;;18.70;99.90;;;;;;6247668;22;20452;-83
2022/10/03 13:45:32;;;;;;;8.30;1.63;;;18.20;99.90;;;;;;6275847;22;20016;-83
2022/10/03 13:48:12;;;;;;;6.28;1.50;;;18.30;99.90;;;;;;6248224;22;20113;-83
2022/10/03 13:51:19;;;;;;;7.60;1.70;;;18.30;99.90;;;;;;6276805;22;20022;-83
2022/10/03 13:54:05;;;;;;;8.18;1.73;;;18.20;99.90;;;;;;6170396;22;20026;-83
2022/10/03 13:56:41;;;;;;;10.02;1.70;;;18.20;99.90;;;;;;6249720;22;20058;-83
2022/10/03 13:59:21;;;;;;;6.72;1.65;;;18.10;99.90;;;;;;6277592;22;20016;-82
2022/10/03 14:02:02;;;;;;;7.15;1.52;;;18.10;99.90;;;;;;6277975;22;20344;-82
2022/10/03 14:05:08;;;;;;;7.90;1.75;;;18.00;99.90;;;;;;6249856;22;20016;-83
2022/10/03 14:08:06;;;;;;;6.85;1.55;;;18.00;99.90;;;;;;6250259;22;20021;-83
2022/10/03 14:10:50;;;;;;;8.88;1.70;;;17.90;99.90;;;;;;6249592;22;20092;-83
2022/10/03 14:13:16;;;;;;;;;;;17.90;99.90;;;;;;6250548;22;20016;-84
2022/10/03 14:16:07;;;;;;;8.02;1.90;;;17.80;99.90;;;;;;6278030;22;19911;-84
2022/10/03 14:18:43;;;;;;;7.00;1.88;;;17.60;99.90;;;;;;6248347;22;20016;-84
2022/10/03 14:21:28;;;;;;;10.00;2.75;;;17.50;99.90;;;;;;6248734;22;20012;-84
2022/10/03 14:24:07;;;;;;;11.73;3.88;;;17.40;99.90;;;;;;6249119;22;20146;-83
2022/10/03 14:26:58;;;;;;;9.55;1.85;;;17.40;99.90;;;;;;6249826;22;20090;-84
2022/10/03 14:30:05;;;;;;;7.55;2.10;;;17.40;99.90;;;;;;6248642;22;20043;-83
2022/10/03 14:32:44;;;;;;;5.70;1.70;;;17.50;99.90;;;;;;6248147;22;20462;-83
2022/10/03 14:35:37;;;;;;;6.00;1.65;;;17.40;99.90;;;;;;6249371;22;20024;-83
2022/10/03 14:38:22;;;;;;;8.63;1.90;;;17.30;99.90;;;;;;6249157;22;20020;-84
2022/10/03 14:41:02;;;;;;;8.75;1.80;;;17.40;99.90;;;;;;6277384;22;20020;-83
2022/10/03 14:43:49;;;;;;;7.85;1.80;;;17.50;99.90;;;;;;6249583;22;20023;-84
2022/10/03 14:46:19;;;;;;;10.20;4.75;;;18.10;99.90;;;;;;6248942;22;20072;-84
2022/10/03 14:48:49;;;;;;;9.68;3.10;;;17.40;99.90;;;;;;6250031;22;20011;-84
2022/10/03 14:51:30;;;;;;;8.00;2.00;;;17.60;99.90;;;;;;6276100;22;20463;-83
2022/10/03 14:54:01;;;;;;;9.65;2.83;;;18.20;99.90;;;;;;6249446;22;20466;-84
2022/10/03 14:56:31;;;;;;;11.38;3.47;;;17.30;99.90;;;;;;6277077;22;20015;-84
2022/10/03 14:59:00;;;;;;;6.78;1.58;;;18.00;99.90;;;;;;6248863;22;20016;-86
2022/10/03 15:01:29;;;;;;;11.70;3.78;;;17.30;99.90;;;;;;6248410;22;20028;-86
2022/10/03 15:04:26;;;;;;;8.70;1.60;;;18.40;99.90;;;;;;6276832;22;20012;-84
2022/10/03 15:07:03;;;;;;;10.18;3.85;;;17.10;99.90;;;;;;6275082;22;20519;-84
2022/10/03 15:09:39;;;;;;;9.10;3.00;;;17.50;99.90;;;;;;6248684;22;20271;-84
2022/10/03 15:12:21;;;;;;;10.45;3.20;;;17.10;99.90;;;;;;6276759;22;20054;-85
2022/10/03 15:15:00;;;;;;;8.25;1.77;;;17.20;99.90;;;;;;6276101;22;20062;-85
2022/10/03 15:20:06;;;;;;;5.70;1.95;;;17.20;99.90;;;;;;6268419;22;20028;-84
2022/10/03 15:22:49;;;;;;;8.60;1.80;;;17.30;99.90;;;;;;6278865;22;20020;-84
2022/10/03 15:25:34;;;;;;;10.25;2.63;;;18.50;99.90;;;;;;6252010;22;20069;-85
2022/10/03 15:28:12;;;;;;;8.55;2.10;;;17.30;99.90;;;;;;6276939;22;20012;-84
2022/10/03 15:30:51;;;;;;;12.80;4.13;;;17.30;99.90;;;;;;6275475;22;20145;-83
2022/10/03 15:33:34;;;;;;;13.98;4.50;;;17.40;99.90;;;;;;6274279;22;20065;-83
2022/10/03 15:36:17;;;;;;;8.32;1.83;;;17.30;99.90;;;;;;6247501;22;20027;-84